Terminal Aerodrome Forecast
Issued by NWS

Home | Current Version | Previous Version | Text Only | Print | Product List | Glossary On
Versions: 1 2 3 4 5 6 7 8 9 10 11 12
000
FTUS44 KEPZ 042327
TAFLRU
TAF
KLRU 042327Z 0500/0524 32008KT P6SM VCSH FEW080 SCT120 BKN200
     FM050600 30004KT P6SM SCT080 BKN150
     FM051800 25012KT P6SM SCT100 BKN180=

USA.gov is the U.S. government's official web portal to all federal, state and local government web resources and services.